createdAt,value
2022-09-11T00:04:42.174Z,21.60
2022-09-11T00:09:43.876Z,22.10
2022-09-11T00:14:45.547Z,21.80
2022-09-11T00:19:47.231Z,21.70
2022-09-11T00:24:48.888Z,21.60
2022-09-11T00:29:50.564Z,21.30
2022-09-11T00:34:52.249Z,21.20
2022-09-11T00:39:54.011Z,21.40
2022-09-11T00:45:01.329Z,21.50
2022-09-11T00:50:20.332Z,21.50
2022-09-11T00:55:24.632Z,21.00
2022-09-11T01:00:26.512Z,20.90
2022-09-11T01:05:29.720Z,20.70
2022-09-11T01:10:50.448Z,21.10
2022-09-11T01:16:06.283Z,21.30
2022-09-11T01:21:23.008Z,21.20
2022-09-11T01:26:42.625Z,21.20
2022-09-11T01:32:24.688Z,20.90
2022-09-11T01:37:48.235Z,20.80
2022-09-11T01:42:53.500Z,21.00
2022-09-11T01:47:56.431Z,21.20
2022-09-11T01:53:01.816Z,20.90
2022-09-11T01:58:10.456Z,20.80
2022-09-11T02:03:29.888Z,21.00
2022-09-11T02:09:00.526Z,21.10
2022-09-11T02:14:27.753Z,20.90
2022-09-11T02:19:31.311Z,20.90
2022-09-11T02:24:33.002Z,21.00
2022-09-11T02:29:35.923Z,21.10
2022-09-11T02:34:39.835Z,20.80
2022-09-11T02:40:05.071Z,20.70
2022-09-11T02:45:20.111Z,20.20
2022-09-11T02:50:27.223Z,20.00
2022-09-11T02:55:53.677Z,20.40
2022-09-11T03:01:01.009Z,20.30
2022-09-11T03:06:02.761Z,20.40
2022-09-11T03:11:04.577Z,20.60
2022-09-11T03:16:07.024Z,20.30
2022-09-11T03:21:08.748Z,20.00
2022-09-11T03:26:10.478Z,20.00
2022-09-11T03:31:12.307Z,20.20
2022-09-11T03:36:14.107Z,20.00
2022-09-11T03:41:16.114Z,20.30
2022-09-11T03:46:17.794Z,20.50
2022-09-11T03:51:19.888Z,20.50
2022-09-11T03:56:21.647Z,20.30
2022-09-11T04:01:23.821Z,20.10
2022-09-11T04:06:25.503Z,20.30
2022-09-11T04:11:27.141Z,20.20
2022-09-11T04:16:28.836Z,20.20
2022-09-11T04:21:31.658Z,20.50
2022-09-11T04:26:33.467Z,20.30
2022-09-11T04:31:35.864Z,20.00
2022-09-11T04:36:37.742Z,19.50
2022-09-11T04:41:39.446Z,20.20
2022-09-11T04:46:41.127Z,20.40
2022-09-11T04:51:43.585Z,20.00
2022-09-11T04:56:45.280Z,20.30
2022-09-11T05:01:47.109Z,20.70
2022-09-11T05:06:48.817Z,20.40
2022-09-11T05:11:50.526Z,19.90
2022-09-11T05:16:52.295Z,19.90
2022-09-11T05:21:54.004Z,20.10
2022-09-11T05:26:55.695Z,20.20
2022-09-11T05:31:57.769Z,19.90
2022-09-11T05:36:59.469Z,20.30
2022-09-11T05:42:01.184Z,20.60
2022-09-11T05:47:03.273Z,20.70
2022-09-11T05:52:04.998Z,20.50
2022-09-11T05:57:07.958Z,20.30
2022-09-11T06:02:11.725Z,20.60
2022-09-11T06:07:13.412Z,20.30
2022-09-11T06:12:15.059Z,20.20
2022-09-11T06:17:16.729Z,20.70
2022-09-11T06:22:18.417Z,20.40
2022-09-11T06:27:20.057Z,20.50
2022-09-11T06:32:21.714Z,20.90
2022-09-11T06:37:23.653Z,21.10
2022-09-11T06:42:25.332Z,21.50
2022-09-11T06:47:27.003Z,21.20
2022-09-11T06:52:28.700Z,21.40
2022-09-11T06:57:30.494Z,22.40
2022-09-11T07:02:32.148Z,21.90
2022-09-11T07:07:33.830Z,22.30
2022-09-11T07:12:35.544Z,22.40
2022-09-11T07:17:37.949Z,23.10
2022-09-11T07:22:39.636Z,22.00
2022-09-11T07:27:41.941Z,22.30
2022-09-11T07:32:44.014Z,22.40
2022-09-11T07:37:50.220Z,22.50
2022-09-11T07:42:52.484Z,22.70
2022-09-11T07:47:54.252Z,22.80
2022-09-11T07:52:55.916Z,23.70
2022-09-11T07:57:57.601Z,23.60
2022-09-11T08:02:59.327Z,23.40
2022-09-11T08:08:01.037Z,24.70
2022-09-11T08:13:02.699Z,24.50
2022-09-11T08:18:04.555Z,24.80
2022-09-11T08:23:06.345Z,25.20
2022-09-11T08:28:08.031Z,25.40
2022-09-11T08:33:12.364Z,25.30
2022-09-11T08:38:14.051Z,25.70
2022-09-11T08:43:26.122Z,26.20
2022-09-11T08:48:34.758Z,25.40
2022-09-11T08:53:36.672Z,25.10
2022-09-11T08:58:50.457Z,25.40
2022-09-11T09:04:14.345Z,25.30
2022-09-11T09:09:42.527Z,25.40
2022-09-11T09:15:03.171Z,25.70
2022-09-11T09:20:21.281Z,25.40
2022-09-11T09:25:25.098Z,26.00
2022-09-11T09:30:31.238Z,26.30
2022-09-11T09:35:40.215Z,26.40
2022-09-11T09:41:02.613Z,26.50
2022-09-11T09:46:15.462Z,26.00
2022-09-11T09:51:17.672Z,26.40
2022-09-11T09:56:22.473Z,26.60
2022-09-11T10:01:39.436Z,26.50
2022-09-11T10:06:41.765Z,27.00
2022-09-11T10:11:43.522Z,26.70
2022-09-11T10:16:51.033Z,27.10
2022-09-11T10:21:52.723Z,27.30
2022-09-11T10:26:54.500Z,27.70
2022-09-11T10:32:03.260Z,27.10
2022-09-11T10:37:13.894Z,27.60
2022-09-11T10:42:18.559Z,28.00
2022-09-11T10:47:32.887Z,28.40
2022-09-11T10:53:09.786Z,28.90
2022-09-11T10:58:17.184Z,28.00
2022-09-11T11:03:25.253Z,27.70
2022-09-11T11:08:48.428Z,27.80
2022-09-11T11:14:16.218Z,28.40
2022-09-11T11:20:02.699Z,29.70
2022-09-11T11:25:15.701Z,29.40
2022-09-11T11:30:23.468Z,28.80
2022-09-11T11:35:37.021Z,28.20
2022-09-11T11:41:06.150Z,28.70
2022-09-11T11:46:31.080Z,29.10
2022-09-11T11:51:44.177Z,29.60
2022-09-11T11:57:08.657Z,29.80
2022-09-11T12:02:10.411Z,29.90
2022-09-11T12:07:30.311Z,29.30
2022-09-11T12:12:35.778Z,30.10
2022-09-11T12:17:38.460Z,29.60
2022-09-11T12:22:40.198Z,29.60
2022-09-11T12:27:44.578Z,30.00
2022-09-11T12:32:48.397Z,30.10
2022-09-11T12:38:08.362Z,30.80
2022-09-11T12:43:18.981Z,30.30
2022-09-11T12:48:25.100Z,30.80
2022-09-11T12:53:32.791Z,31.30
2022-09-11T12:58:46.155Z,31.50
2022-09-11T13:03:56.980Z,30.90
2022-09-11T13:09:01.047Z,31.10
2022-09-11T13:14:03.358Z,31.40
2022-09-11T13:19:08.058Z,30.90
2022-09-11T13:24:30.106Z,30.60
2022-09-11T13:29:37.699Z,29.80
2022-09-11T13:34:44.487Z,30.40
2022-09-11T13:39:46.711Z,30.80
2022-09-11T13:44:54.564Z,30.40
2022-09-11T13:50:00.774Z,31.20
2022-09-11T13:55:15.566Z,30.40
2022-09-11T14:00:45.793Z,30.60
2022-09-11T14:05:50.542Z,30.20
2022-09-11T14:10:55.988Z,30.30
2022-09-11T14:16:14.192Z,30.50
2022-09-11T14:21:32.793Z,30.10
2022-09-11T14:26:34.632Z,30.50
2022-09-11T14:31:38.178Z,30.20
2022-09-11T14:36:46.759Z,30.40
2022-09-11T14:41:48.543Z,29.90
2022-09-11T14:46:50.251Z,30.00
2022-09-11T14:52:00.171Z,29.60
2022-09-11T14:57:01.868Z,30.50
2022-09-11T15:02:03.725Z,29.10
2022-09-11T15:07:06.917Z,29.30
2022-09-11T15:12:10.763Z,29.10
2022-09-11T15:17:17.334Z,29.10
2022-09-11T15:22:19.155Z,28.70
2022-09-11T15:27:20.862Z,28.40
2022-09-11T15:32:22.638Z,27.90
2022-09-11T15:37:24.405Z,28.10
2022-09-11T15:42:26.342Z,28.10
2022-09-11T15:47:28.020Z,27.70
2022-09-11T15:52:32.031Z,27.20
2022-09-11T15:57:33.760Z,27.20
2022-09-11T16:02:35.439Z,27.30
2022-09-11T16:07:38.476Z,27.40
2022-09-11T16:12:40.133Z,27.50
2022-09-11T16:17:41.940Z,27.30
2022-09-11T16:22:43.662Z,27.20
2022-09-11T16:27:45.456Z,27.20
2022-09-11T16:32:47.132Z,27.30
2022-09-11T16:37:48.797Z,27.50
2022-09-11T16:42:50.476Z,27.30
2022-09-11T16:47:52.135Z,27.10
2022-09-11T16:52:53.798Z,27.10
2022-09-11T16:57:55.669Z,27.20
2022-09-11T17:02:57.372Z,27.80
2022-09-11T17:07:59.162Z,28.40
2022-09-11T17:13:01.087Z,27.60
2022-09-11T17:18:02.779Z,27.10
2022-09-11T17:23:06.328Z,26.80
2022-09-11T17:28:08.468Z,26.50
2022-09-11T17:33:10.133Z,26.20
2022-09-11T17:38:11.790Z,26.00
2022-09-11T17:43:13.459Z,25.70
2022-09-11T17:48:15.280Z,25.60
2022-09-11T17:53:16.941Z,25.50
2022-09-11T17:58:18.614Z,25.60
2022-09-11T18:03:20.321Z,25.40
2022-09-11T18:08:22.063Z,25.70
2022-09-11T18:13:23.810Z,25.20
2022-09-11T18:18:25.539Z,24.90
2022-09-11T18:23:27.237Z,24.70
2022-09-11T18:28:29.910Z,24.60
2022-09-11T18:33:32.318Z,24.50
2022-09-11T18:38:34.736Z,24.50
2022-09-11T18:43:36.393Z,24.30
2022-09-11T18:48:38.112Z,24.20
2022-09-11T18:53:39.826Z,24.20
2022-09-11T18:58:41.613Z,24.50
2022-09-11T19:03:43.900Z,24.50
2022-09-11T19:08:47.576Z,24.40
2022-09-11T19:13:50.834Z,24.00
2022-09-11T19:18:52.513Z,23.70
2022-09-11T19:23:56.242Z,24.40
2022-09-11T19:29:00.199Z,23.90
2022-09-11T19:34:02.577Z,23.70
2022-09-11T19:39:05.410Z,23.50
2022-09-11T19:44:09.961Z,23.50
2022-09-11T19:49:11.728Z,23.70
2022-09-11T19:54:13.956Z,23.20
2022-09-11T19:59:16.396Z,23.10
2022-09-11T20:04:18.045Z,22.50
2022-09-11T20:09:30.845Z,22.70
2022-09-11T20:14:33.644Z,23.20
2022-09-11T20:19:35.364Z,23.00
2022-09-11T20:24:37.033Z,23.30
2022-09-11T20:29:38.832Z,23.20
2022-09-11T20:34:40.500Z,22.90
2022-09-11T20:39:42.236Z,23.00
2022-09-11T20:44:43.974Z,22.90
2022-09-11T20:49:46.038Z,22.90
2022-09-11T20:54:47.780Z,22.70
2022-09-11T20:59:49.498Z,22.70
2022-09-11T21:04:51.186Z,22.70
2022-09-11T21:09:52.879Z,22.60
2022-09-11T21:14:54.562Z,22.70
2022-09-11T21:19:57.493Z,22.60
2022-09-11T21:24:59.484Z,22.60
2022-09-11T21:30:01.150Z,22.40
2022-09-11T21:35:02.833Z,22.50
2022-09-11T21:40:05.186Z,22.50
2022-09-11T21:45:07.217Z,22.40
2022-09-11T21:50:09.525Z,22.30
2022-09-11T21:55:11.325Z,22.30
2022-09-11T22:00:13.507Z,22.20
2022-09-11T22:05:15.233Z,21.90
2022-09-11T22:10:16.954Z,22.20
2022-09-11T22:15:18.782Z,22.30
2022-09-11T22:20:20.456Z,23.00
2022-09-11T22:25:22.165Z,22.10
2022-09-11T22:30:23.858Z,21.80
2022-09-11T22:35:26.001Z,21.50
2022-09-11T22:40:27.716Z,21.80
2022-09-11T22:45:29.417Z,21.90
2022-09-11T22:50:31.131Z,22.40
2022-09-11T22:55:32.815Z,21.90
2022-09-11T23:00:34.513Z,21.80
2022-09-11T23:05:36.521Z,21.60
2022-09-11T23:10:42.544Z,21.50
2022-09-11T23:15:44.291Z,21.60
2022-09-11T23:20:46.608Z,21.40
2022-09-11T23:25:48.350Z,21.40
2022-09-11T23:30:50.144Z,21.60
2022-09-11T23:35:51.824Z,22.00
2022-09-11T23:40:53.506Z,21.80
2022-09-11T23:45:55.298Z,21.40
2022-09-11T23:50:57.142Z,21.10
2022-09-11T23:55:58.826Z,21.40
